Time;durP1;ratioP1;P1;durP2;ratioP2;P2;SDS_P1;SDS_P2;PMS_P1;PMS_P2;Temp;Humidity;BMP_temperature;BMP_pressure;BME280_temperature;BME280_humidity;BME280_pressure;Samples;Min_cycle;Max_cycle;Signal;HPM_P1;HPM_P2
2023/01/04 00:02:12;;;;;;;;;56.80;45.00;;;;;10.86;54.65;100041.56;6246557;27;96329;-63
2023/01/04 00:05:15;;;;;;;;;57.00;46.20;;;;;10.88;54.62;100044.91;6267591;27;96605;-63
2023/01/04 00:08:19;;;;;;;;;60.75;47.00;;;;;10.88;54.46;100044.06;6253505;27;96434;-63
2023/01/04 00:11:24;;;;;;;;;62.00;48.00;;;;;10.89;54.88;100045.75;6223470;27;97132;-64
2023/01/04 00:14:29;;;;;;;;;61.00;47.00;;;;;10.88;54.62;100038.69;6212004;27;96294;-64
2023/01/04 00:17:33;;;;;;;;;60.40;47.20;;;;;10.85;54.58;100039.88;6234724;27;96957;-63
2023/01/04 00:20:37;;;;;;;;;56.80;46.20;;;;;10.85;54.64;100040.72;6211172;27;96575;-64
2023/01/04 00:23:42;;;;;;;;;61.00;47.00;;;;;10.90;55.00;100042.03;6208148;27;98740;-63
2023/01/04 00:26:45;;;;;;;;;61.00;48.00;;;;;10.92;54.86;100050.75;6243608;27;96366;-63
2023/01/04 00:29:50;;;;;;;;;59.20;48.00;;;;;10.95;54.79;100056.56;6266807;27;96578;-63
2023/01/04 00:32:53;;;;;;;;;61.00;47.50;;;;;10.96;54.93;100047.44;6272092;27;96826;-62
2023/01/04 00:35:56;;;;;;;;;59.00;46.25;;;;;10.93;54.93;100053.25;6259966;27;96235;-63
2023/01/04 00:39:08;;;;;;;;;61.00;48.60;;;;;10.90;54.65;100048.22;6233248;27;96872;-62
2023/01/04 00:42:12;;;;;;;;;60.80;47.80;;;;;10.88;54.72;100046.78;6185507;28;96870;-62
2023/01/04 00:45:16;;;;;;;;;61.80;48.20;;;;;10.83;54.65;100050.91;6185817;27;96195;-63
2023/01/04 00:48:20;;;;;;;;;61.40;48.60;;;;;10.77;54.81;100046.28;6256496;27;96547;-62
2023/01/04 00:51:23;;;;;;;;;63.00;49.00;;;;;10.70;54.80;100033.78;6184527;28;96370;-62
2023/01/04 00:54:27;;;;;;;;;62.00;47.40;;;;;10.69;54.69;100043.72;6263246;27;96359;-62
2023/01/04 00:57:30;;;;;;;;;60.20;48.00;;;;;10.62;54.58;100028.50;6228055;27;96548;-63
2023/01/04 01:00:35;;;;;;;;;61.00;48.00;;;;;10.50;54.38;100043.53;6203588;27;96746;-63
2023/01/04 01:03:39;;;;;;;;;61.20;48.20;;;;;10.38;54.80;100033.25;6271699;27;96367;-63
2023/01/04 01:06:42;;;;;;;;;64.25;48.00;;;;;10.29;55.08;100036.28;6182900;28;96389;-63
2023/01/04 01:09:45;;;;;;;;;59.25;47.00;;;;;10.19;54.82;100039.28;6232572;27;98352;-62
2023/01/04 01:12:49;;;;;;;;;60.00;46.00;;;;;10.12;54.70;100030.25;6227762;27;96808;-64
2023/01/04 01:15:54;;;;;;;;;58.20;46.00;;;;;10.05;54.89;100031.22;6262985;27;96804;-63
2023/01/04 01:18:57;;;;;;;;;57.60;46.00;;;;;9.99;55.27;100032.81;6270017;27;96766;-62
2023/01/04 01:22:01;;;;;;;;;59.40;45.80;;;;;9.94;54.85;100019.06;6242958;27;96333;-63
2023/01/04 01:25:06;;;;;;;;;58.20;45.20;;;;;9.92;54.86;100024.63;6196430;27;96678;-63
2023/01/04 01:28:09;;;;;;;;;52.00;43.60;;;;;9.88;54.92;100017.97;6249671;27;96423;-63
2023/01/04 01:31:16;;;;;;;;;56.00;45.00;;;;;9.72;54.44;99993.13;6206574;27;97392;-62
2023/01/04 01:34:19;;;;;;;;;53.75;43.75;;;;;9.79;54.83;100016.41;6183977;28;96646;-62
2023/01/04 01:37:23;;;;;;;;;55.00;42.00;;;;;9.75;54.89;100023.22;6179783;27;96713;-63
2023/01/04 01:40:26;;;;;;;;;54.60;43.00;;;;;9.66;54.76;100024.34;6216403;27;96861;-63
2023/01/04 01:43:51;;;;;;;;;50.40;40.40;;;;;9.55;54.94;100022.13;6185491;28;96372;-64
2023/01/04 01:46:56;;;;;;;;;52.40;43.60;;;;;9.40;55.30;100016.75;6271469;27;96436;-63
2023/01/04 01:50:00;;;;;;;;;51.50;41.75;;;;;9.30;55.56;100013.50;6184054;27;96716;-63
2023/01/04 01:53:08;;;;;;;;;50.60;41.00;;;;;9.29;55.25;100009.13;6271831;27;96897;-63
2023/01/04 01:56:16;;;;;;;;;51.00;42.00;;;;;9.24;55.67;100019.63;6184503;28;96432;-63
2023/01/04 01:59:21;;;;;;;;;52.60;41.60;;;;;9.25;55.60;100020.47;6236015;27;97375;-63
2023/01/04 02:02:25;;;;;;;;;50.00;40.25;;;;;9.23;55.98;100023.34;6249352;27;97253;-62
2023/01/04 02:05:31;;;;;;;;;51.40;41.00;;;;;9.23;55.46;100025.22;6221283;27;96390;-62
2023/01/04 02:08:38;;;;;;;;;51.50;40.00;;;;;9.25;56.25;100025.84;6282121;27;96512;-62
2023/01/04 02:11:41;;;;;;;;;50.20;40.00;;;;;9.27;56.17;100021.97;6168795;27;96833;-63
2023/01/04 02:14:48;;;;;;;;;49.00;39.75;;;;;9.31;56.30;100034.03;6275056;27;96453;-63
2023/01/04 02:18:00;;;;;;;;;50.20;40.80;;;;;9.36;56.38;100031.59;6260735;27;97716;-63
2023/01/04 02:21:09;;;;;;;;;48.00;39.75;;;;;9.39;55.98;100035.78;6271202;27;97149;-62
2023/01/04 02:24:28;;;;;;;;;51.25;41.00;;;;;9.23;55.44;100007.22;6251712;27;96372;-63
2023/01/04 02:27:49;;;;;;;;;48.40;37.80;;;;;9.35;55.77;100027.25;6205640;27;96379;-63
2023/01/04 02:31:20;;;;;;;;;48.75;40.00;;;;;9.31;55.63;100034.03;6227097;27;96611;-63
2023/01/04 02:34:36;;;;;;;;;46.80;39.20;;;;;9.27;55.99;100024.66;6240559;27;96281;-62
2023/01/04 02:37:49;;;;;;;;;50.00;40.00;;;;;9.21;55.95;100014.63;6234484;27;96224;-63
2023/01/04 02:41:01;;;;;;;;;52.00;41.50;;;;;9.13;55.81;100012.88;6225960;27;96877;-62
2023/01/04 02:50:58;;;;;;;;;55.60;44.00;;;;;8.87;56.94;99990.13;6270907;27;96534;-62
2023/01/04 02:54:06;;;;;;;;;55.00;43.20;;;;;8.97;57.07;99996.91;6204145;27;96311;-64
2023/01/04 02:57:24;;;;;;;;;53.50;42.25;;;;;9.06;56.95;100003.00;6185587;27;96331;-63
2023/01/04 03:07:48;;;;;;;;;52.80;42.00;;;;;8.85;55.74;99992.13;6192800;27;97323;-63
2023/01/04 03:10:59;;;;;;;;;52.00;42.80;;;;;8.74;56.01;99981.84;6263939;27;96860;-65
2023/01/04 03:14:06;;;;;;;;;52.00;42.00;;;;;8.61;55.35;99971.72;6230336;27;97017;-62
2023/01/04 03:17:37;;;;;;;;;52.80;42.00;;;;;8.46;55.28;99968.16;6176021;27;96471;-63
2023/01/04 03:20:44;;;;;;;;;51.50;42.00;;;;;8.39;55.41;99961.84;6184298;28;96316;-64
2023/01/04 03:37:33;;;;;;;;;52.50;41.25;;;;;8.47;57.84;99951.00;6270344;27;96861;-61
2023/01/04 03:51:03;;;;;;;;;49.20;39.80;;;;;8.36;56.87;99962.19;6262414;27;97291;-62
2023/01/04 03:54:11;;;;;;;;;50.50;40.75;;;;;8.29;56.38;99962.06;6245220;27;96554;-63
2023/01/04 03:57:16;;;;;;;;;55.00;43.40;;;;;8.23;56.39;99957.41;6208901;27;96696;-62
2023/01/04 04:00:20;;;;;;;;;49.00;40.00;;;;;8.12;56.15;99955.13;6191720;27;96261;-63
2023/01/04 04:03:25;;;;;;;;;52.00;42.00;;;;;7.95;56.01;99945.56;6183207;27;97029;-62
2023/01/04 04:09:51;;;;;;;;;52.60;41.60;;;;;7.87;56.44;99956.34;6263016;27;96288;-62
2023/01/04 04:12:54;;;;;;;;;49.00;39.40;;;;;7.80;57.10;99962.44;6279740;27;96516;-62
2023/01/04 04:15:58;;;;;;;;;52.25;41.00;;;;;7.80;57.11;99956.22;6256641;27;96348;-63
2023/01/04 04:19:01;;;;;;;;;50.00;41.00;;;;;7.80;57.17;99951.69;6269743;27;96213;-62
2023/01/04 04:22:10;;;;;;;;;51.40;42.00;;;;;7.80;57.70;99953.53;6243272;27;96881;-61
2023/01/04 04:25:15;;;;;;;;;53.00;42.00;;;;;7.88;58.80;99947.25;6226473;27;96742;-62
2023/01/04 04:28:19;;;;;;;;;53.40;43.00;;;;;7.94;59.29;99939.34;6240853;27;96224;-63
2023/01/04 04:31:22;;;;;;;;;52.25;41.00;;;;;8.00;59.72;99941.31;6189371;27;96199;-63
2023/01/04 04:34:26;;;;;;;;;54.80;43.00;;;;;8.04;59.31;99944.47;6181753;28;96818;-63
2023/01/04 04:37:30;;;;;;;;;49.40;40.80;;;;;8.06;58.64;99940.56;6268849;27;96793;-66
2023/01/04 04:43:59;;;;;;;;;53.40;43.00;;;;;8.06;58.87;99934.41;6236626;27;96994;-62
2023/01/04 04:47:02;;;;;;;;;52.40;43.40;;;;;8.12;59.04;99937.19;6216615;27;97411;-63
2023/01/04 04:50:06;;;;;;;;;55.00;44.00;;;;;8.16;59.46;99940.34;6230840;27;96249;-62
2023/01/04 04:53:10;;;;;;;;;52.60;42.00;;;;;8.22;59.40;99939.63;6202181;27;96754;-63
2023/01/04 04:56:15;;;;;;;;;53.40;42.60;;;;;8.19;59.83;99927.41;6179383;27;96943;-64
2023/01/04 04:59:18;;;;;;;;;56.60;44.40;;;;;8.23;59.58;99934.06;6184979;27;96412;-62
2023/01/04 05:02:22;;;;;;;;;51.00;43.00;;;;;8.25;59.01;99925.84;6179162;28;97024;-62
2023/01/04 05:05:25;;;;;;;;;52.60;42.40;;;;;8.14;58.56;99915.53;6277858;27;96344;-62
2023/01/04 05:08:29;;;;;;;;;55.00;44.00;;;;;7.96;57.52;99906.94;6232200;27;96516;-62
2023/01/04 05:14:54;;;;;;;;;55.00;44.00;;;;;7.80;57.74;99913.28;6195184;27;96596;-63
2023/01/04 05:17:58;;;;;;;;;54.40;42.40;;;;;7.69;58.74;99879.63;6207038;27;96965;-63
2023/01/04 05:21:02;;;;;;;;;53.00;42.40;;;;;7.91;59.01;99895.91;6177369;27;96605;-63
2023/01/04 05:24:06;;;;;;;;;53.40;42.60;;;;;8.00;59.85;99890.28;6165570;27;97228;-64
2023/01/04 05:27:10;;;;;;;;;51.60;42.00;;;;;8.09;60.05;99883.00;6175323;27;96521;-63
2023/01/04 05:33:37;;;;;;;;;53.00;42.75;;;;;8.18;60.11;99869.31;6167566;27;96573;-63
2023/01/04 05:36:40;;;;;;;;;51.00;41.20;;;;;8.22;59.70;99865.22;6172814;27;97281;-64
2023/01/04 05:39:43;;;;;;;;;52.00;42.20;;;;;8.22;59.34;99867.91;6182087;27;96808;-65
2023/01/04 05:42:49;;;;;;;;;45.00;37.40;;;;;8.30;59.97;99866.22;6182937;27;96246;-63
2023/01/04 05:45:54;;;;;;;;;46.00;36.60;;;;;8.36;59.80;99865.47;6181686;28;96676;-63
2023/01/04 05:48:58;;;;;;;;;48.00;37.00;;;;;8.46;59.28;99863.34;6181739;27;96665;-63
2023/01/04 05:52:01;;;;;;;;;46.00;36.20;;;;;8.48;58.67;99861.31;6164914;27;97227;-62
2023/01/04 05:55:05;;;;;;;;;43.75;36.25;;;;;8.53;58.17;99862.44;6163857;27;96609;-64
2023/01/04 05:58:10;;;;;;;;;40.80;33.00;;;;;8.54;57.82;99860.59;6163792;28;96953;-63
2023/01/04 06:01:14;;;;;;;;;42.75;34.00;;;;;8.55;57.31;99865.75;6166055;27;96419;-64
2023/01/04 06:04:17;;;;;;;;;41.00;33.00;;;;;8.45;56.76;99851.78;6166486;27;96452;-64
2023/01/04 06:07:21;;;;;;;;;40.80;33.60;;;;;8.54;57.17;99866.78;6169287;27;96380;-63
2023/01/04 06:10:24;;;;;;;;;39.00;33.00;;;;;8.55;57.00;99857.69;6169946;27;96619;-63
2023/01/04 06:13:29;;;;;;;;;39.40;31.00;;;;;8.58;56.81;99859.19;6172705;27;97505;-62
2023/01/04 06:16:32;;;;;;;;;35.00;30.00;;;;;8.59;56.40;99852.81;6180454;27;96267;-63
2023/01/04 06:19:37;;;;;;;;;34.25;31.00;;;;;8.56;56.60;99859.38;6173102;27;96977;-63
2023/01/04 06:22:41;;;;;;;;;33.80;29.40;;;;;8.55;55.98;99864.94;6181464;27;97528;-64
2023/01/04 06:25:45;;;;;;;;;35.00;31.40;;;;;8.54;56.26;99853.38;6265978;27;96446;-63
2023/01/04 06:28:50;;;;;;;;;38.00;33.00;;;;;8.49;56.35;99860.31;6182177;28;96520;-64
2023/01/04 06:31:54;;;;;;;;;36.00;30.00;;;;;8.43;56.02;99855.66;6198326;27;97536;-64
2023/01/04 06:34:57;;;;;;;;;40.50;33.00;;;;;8.31;55.75;99849.09;6208764;27;96381;-62
2023/01/04 06:38:01;;;;;;;;;47.20;38.40;;;;;8.25;55.49;99850.63;6239495;27;96836;-63
2023/01/04 06:41:04;;;;;;;;;45.00;37.25;;;;;8.15;55.32;99852.72;6209433;27;96250;-64
2023/01/04 06:44:09;;;;;;;;;47.00;38.25;;;;;8.05;55.16;99836.88;6228811;27;96266;-63
2023/01/04 06:47:13;;;;;;;;;49.00;39.00;;;;;7.98;55.08;99829.72;6234626;27;96639;-62
2023/01/04 06:50:16;;;;;;;;;50.50;39.00;;;;;7.87;54.88;99822.94;6221279;27;97130;-63
2023/01/04 06:53:20;;;;;;;;;47.40;39.40;;;;;7.77;54.26;99830.44;6226598;27;96822;-62
2023/01/04 06:56:24;;;;;;;;;54.60;42.60;;;;;7.59;53.73;99830.72;6238771;27;96364;-62
2023/01/04 06:59:28;;;;;;;;;50.67;40.00;;;;;7.47;53.43;99834.00;6299220;27;97514;-62
2023/01/04 07:02:32;;;;;;;;;52.75;43.00;;;;;7.37;53.63;99834.25;6181076;27;96802;-62
2023/01/04 07:05:35;;;;;;;;;49.75;40.00;;;;;7.31;53.92;99825.06;6192428;27;96548;-62
2023/01/04 07:08:39;;;;;;;;;50.40;39.60;;;;;7.32;54.52;99834.78;6187776;27;96293;-62
2023/01/04 07:11:42;;;;;;;;;48.50;38.50;;;;;7.51;55.86;99838.84;6185192;27;98959;-62
2023/01/04 07:14:49;;;;;;;;;49.75;40.50;;;;;7.70;55.93;99846.41;6186367;27;97628;-62
2023/01/04 07:17:54;;;;;;;;;51.50;41.50;;;;;7.79;55.65;99829.22;6190093;27;96567;-63
2023/01/04 07:20:58;;;;;;;;;49.50;40.00;;;;;8.01;55.33;99837.44;6186239;27;96443;-62
2023/01/04 07:24:01;;;;;;;;;47.00;39.75;;;;;8.25;54.65;99831.81;6180151;28;96931;-63
2023/01/04 07:27:05;;;;;;;;;58.40;46.00;;;;;9.68;51.17;99817.63;6212259;27;97316;-63
2023/01/04 07:30:11;;;;;;;;;51.20;42.00;;;;;11.60;45.24;99814.94;6249141;27;97725;-64
2023/01/04 07:33:15;;;;;;;;;54.40;44.00;;;;;13.40;41.31;99799.81;6194374;27;96905;-64
2023/01/04 07:36:19;;;;;;;;;54.80;44.00;;;;;14.89;37.85;99807.91;6180805;28;96476;-64
2023/01/04 07:39:22;;;;;;;;;54.80;43.80;;;;;15.87;35.20;99806.56;6192736;27;96412;-62
2023/01/04 07:42:25;;;;;;;;;53.40;43.00;;;;;17.02;34.26;99809.47;6187313;27;96920;-62
2023/01/04 07:45:30;;;;;;;;;54.60;43.40;;;;;18.15;32.14;99803.97;6191550;27;97109;-63
2023/01/04 07:48:33;;;;;;;;;50.00;41.00;;;;;19.40;29.99;99803.19;6186967;27;96777;-63
2023/01/04 07:51:37;;;;;;;;;50.00;41.75;;;;;20.63;28.63;99805.94;6227537;27;96819;-64
2023/01/04 07:54:42;;;;;;;;;50.00;40.40;;;;;21.79;27.25;99822.88;6236216;27;96599;-65
2023/01/04 07:57:45;;;;;;;;;46.75;37.75;;;;;22.75;25.81;99816.56;6213248;27;96451;-64
2023/01/04 08:00:50;;;;;;;;;46.00;38.00;;;;;23.67;24.78;99815.06;6180157;27;97117;-65
2023/01/04 08:03:53;;;;;;;;;46.75;38.00;;;;;24.35;23.69;99801.34;6194975;27;96287;-64
2023/01/04 08:06:57;;;;;;;;;45.00;37.20;;;;;25.03;23.14;99796.50;6196406;27;96679;-64
2023/01/04 08:10:01;;;;;;;;;48.50;39.00;;;;;25.61;22.25;99769.50;6196435;27;96942;-65
2023/01/04 08:13:04;;;;;;;;;46.60;38.00;;;;;26.45;21.82;99786.09;6221637;27;97497;-65
2023/01/04 08:16:19;;;;;;;;;44.50;36.25;;;;;27.10;20.26;99784.84;6201329;27;96556;-65
2023/01/04 08:19:22;;;;;;;;;45.20;36.20;;;;;27.80;20.27;99775.28;6248314;27;96927;-65
2023/01/04 08:22:26;;;;;;;;;45.25;37.00;;;;;28.35;19.49;99784.97;6184811;27;96632;-64
2023/01/04 08:25:29;;;;;;;;;46.75;37.00;;;;;28.93;18.92;99783.97;6173776;28;96581;-65
2023/01/04 08:28:33;;;;;;;;;38.20;33.00;;;;;29.34;18.22;99775.28;6170823;28;96942;-65
2023/01/04 08:31:39;;;;;;;;;41.67;35.00;;;;;29.69;17.88;99770.59;6180420;28;96751;-65
2023/01/04 08:34:42;;;;;;;;;42.00;34.75;;;;;30.13;17.55;99781.38;6180385;28;96387;-66
2023/01/04 08:37:46;;;;;;;;;41.60;35.00;;;;;30.68;17.20;99782.59;6178112;28;97377;-65
2023/01/04 08:40:49;;;;;;;;;41.20;34.20;;;;;30.99;16.42;99785.88;6168543;28;96528;-65
2023/01/04 08:44:09;;;;;;;;;40.00;35.00;;;;;31.38;16.24;99793.03;6181029;28;96446;-65
2023/01/04 08:47:14;;;;;;;;;41.20;35.00;;;;;31.74;15.83;99800.84;6182521;28;96974;-66
2023/01/04 08:50:19;;;;;;;;;44.60;36.00;;;;;32.13;15.11;99791.19;6183997;28;96901;-66
2023/01/04 08:53:22;;;;;;;;;41.40;35.60;;;;;32.31;15.18;99792.66;6186092;28;96333;-65
2023/01/04 08:56:25;;;;;;;;;41.40;34.40;;;;;32.55;15.02;99781.53;6183436;28;96669;-65
2023/01/04 08:59:29;;;;;;;;;42.00;35.20;;;;;32.84;14.77;99779.75;6189997;28;96758;-65
2023/01/04 09:02:33;;;;;;;;;48.00;39.00;;;;;32.63;14.91;99761.13;6181389;28;96864;-66
2023/01/04 09:05:37;;;;;;;;;45.75;37.50;;;;;32.38;15.16;99773.38;6181490;28;96553;-66
2023/01/04 09:08:42;;;;;;;;;48.75;39.00;;;;;32.56;14.85;99765.59;6185507;28;96466;-65
2023/01/04 09:11:46;;;;;;;;;45.00;38.00;;;;;32.64;15.05;99759.97;6185691;28;97196;-65
2023/01/04 09:14:49;;;;;;;;;36.60;32.60;;;;;32.81;14.69;99756.13;6185192;28;96594;-66
2023/01/04 09:17:54;;;;;;;;;43.40;34.60;;;;;32.77;14.46;99744.03;6185137;28;96412;-64
2023/01/04 09:21:19;;;;;;;;;33.00;29.50;;;;;32.92;14.07;99751.72;6185897;28;96315;-65
2023/01/04 09:24:23;;;;;;;;;29.40;28.00;;;;;33.10;13.76;99743.88;6183928;28;96280;-65
2023/01/04 09:27:26;;;;;;;;;29.00;27.00;;;;;33.55;13.73;99742.91;6186508;28;96879;-65
2023/01/04 09:30:30;;;;;;;;;30.60;27.60;;;;;33.77;13.69;99722.84;6186025;28;97374;-65
2023/01/04 09:33:35;;;;;;;;;33.00;30.00;;;;;34.16;13.54;99719.13;6185069;28;96439;-67
2023/01/04 09:36:59;;;;;;;;;30.40;27.00;;;;;34.40;13.55;99715.41;6185776;28;96241;-65
2023/01/04 09:40:03;;;;;;;;;29.50;27.00;;;;;34.31;13.16;99700.75;6185586;28;96454;-65
2023/01/04 09:43:18;;;;;;;;;27.00;25.00;;;;;34.59;13.45;99690.28;6185117;28;96258;-66
2023/01/04 09:46:30;;;;;;;;;21.40;20.40;;;;;34.63;12.93;99681.97;6186431;28;96242;-64
2023/01/04 09:49:41;;;;;;;;;17.00;15.40;;;;;34.30;12.59;99676.75;6187610;28;96279;-65
2023/01/04 09:52:55;;;;;;;;;21.00;18.00;;;;;34.61;13.14;99673.09;6187191;28;96237;-65
2023/01/04 09:56:08;;;;;;;;;17.00;15.00;;;;;34.42;12.83;99661.81;6186640;28;96913;-62
2023/01/04 09:59:17;;;;;;;;;13.50;13.25;;;;;34.57;13.24;99658.22;6182978;28;96251;-64
2023/01/04 10:02:29;;;;;;;;;11.00;11.00;;;;;34.24;13.24;99642.59;6185591;27;97273;-62
2023/01/04 10:05:34;;;;;;;;;10.50;10.50;;;;;34.52;12.49;99638.88;6184941;27;96707;-64
2023/01/04 10:08:40;;;;;;;;;13.50;13.00;;;;;34.56;12.14;99631.38;6184334;28;96956;-62
2023/01/04 10:12:01;;;;;;;;;9.60;9.60;;;;;34.51;12.21;99618.47;6184897;28;96333;-62
2023/01/04 10:15:23;;;;;;;;;10.00;8.20;;;;;34.17;13.25;99610.78;6181883;28;96399;-63
2023/01/04 10:18:36;;;;;;;;;9.00;8.00;;;;;33.61;12.89;99612.88;6183414;28;96771;-62
2023/01/04 10:22:10;;;;;;;;;10.80;10.00;;;;;32.92;13.54;99595.28;6183931;27;96176;-62
2023/01/04 10:25:24;;;;;;;;;8.60;8.00;;;;;31.92;14.19;99583.97;6183444;28;96560;-62
2023/01/04 10:28:40;;;;;;;;;10.00;9.00;;;;;31.97;14.07;99578.19;6184788;28;97122;-62
2023/01/04 10:31:49;;;;;;;;;10.60;9.00;;;;;31.96;13.91;99571.78;6184875;28;96552;-63
2023/01/04 10:34:53;;;;;;;;;9.00;8.00;;;;;32.19;14.27;99566.63;6182900;28;96329;-63
2023/01/04 10:38:01;;;;;;;;;7.00;6.00;;;;;32.67;14.05;99549.03;6184195;28;96444;-63
2023/01/04 10:41:10;;;;;;;;;8.00;8.00;;;;;32.96;13.71;99559.06;6183912;28;96343;-63
2023/01/04 10:44:21;;;;;;;;;5.00;5.00;;;;;32.58;13.81;99543.56;6183995;28;96562;-62
2023/01/04 10:47:32;;;;;;;;;6.00;5.00;;;;;32.23;13.70;99536.84;6181981;28;96477;-62
2023/01/04 10:50:44;;;;;;;;;6.80;5.80;;;;;32.37;13.63;99534.50;6184879;28;96281;-63
2023/01/04 10:53:56;;;;;;;;;4.20;3.20;;;;;32.81;13.79;99523.50;6182257;28;97543;-64
2023/01/04 10:57:08;;;;;;;;;6.00;5.50;;;;;33.05;13.35;99512.22;6181519;28;96429;-63
2023/01/04 11:00:17;;;;;;;;;7.00;7.00;;;;;33.11;13.36;99519.19;6183857;28;96474;-62
2023/01/04 11:03:28;;;;;;;;;6.67;6.00;;;;;32.99;13.73;99516.44;6178904;28;96643;-62
2023/01/04 11:06:39;;;;;;;;;6.00;6.00;;;;;33.06;13.46;99513.88;6182710;28;96480;-63
2023/01/04 11:09:50;;;;;;;;;6.00;5.00;;;;;33.23;13.15;99496.84;6177606;28;96844;-64
2023/01/04 11:12:53;;;;;;;;;6.00;5.60;;;;;33.44;13.43;99483.41;6183326;28;96031;-63
2023/01/04 11:15:57;;;;;;;;;5.25;5.00;;;;;32.95;13.29;99466.06;6180206;28;96612;-63
2023/01/04 11:19:03;;;;;;;;;5.60;5.00;;;;;32.83;13.40;99466.16;6182773;28;96819;-63
2023/01/04 11:22:14;;;;;;;;;7.60;5.00;;;;;32.79;13.67;99458.84;6179304;28;97840;-63
2023/01/04 11:25:21;;;;;;;;;7.00;6.60;;;;;32.71;13.35;99443.84;6181472;28;96469;-62
2023/01/04 11:28:45;;;;;;;;;6.00;5.60;;;;;32.42;13.58;99417.03;6181284;28;96753;-62
2023/01/04 11:31:54;;;;;;;;;6.00;5.00;;;;;32.27;13.77;99423.38;6178848;28;96912;-62
2023/01/04 11:34:58;;;;;;;;;5.50;4.00;;;;;31.51;14.05;99412.94;6183147;28;96586;-62
2023/01/04 11:38:11;;;;;;;;;6.00;5.40;;;;;30.78;14.32;99414.72;6183288;28;97195;-62
2023/01/04 11:41:19;;;;;;;;;5.20;4.20;;;;;29.48;15.03;99408.41;6178636;28;96986;-62
2023/01/04 11:44:23;;;;;;;;;5.00;5.00;;;;;28.34;16.44;99399.81;6179968;28;96653;-62
2023/01/04 11:47:27;;;;;;;;;4.40;4.00;;;;;27.40;17.36;99395.66;6183183;28;96413;-62
2023/01/04 11:50:40;;;;;;;;;4.00;3.20;;;;;26.87;17.49;99390.22;6183199;28;96295;-63
2023/01/04 11:53:43;;;;;;;;;5.00;5.00;;;;;26.59;17.89;99381.19;6182198;28;96333;-62
2023/01/04 11:57:05;;;;;;;;;6.00;5.00;;;;;26.25;18.03;99376.22;6184239;28;97471;-62
2023/01/04 12:00:16;;;;;;;;;5.00;5.00;;;;;25.74;18.30;99381.25;6171992;28;97459;-63
2023/01/04 12:03:26;;;;;;;;;6.00;6.00;;;;;25.15;19.06;99376.66;6187280;28;96841;-62
2023/01/04 12:06:38;;;;;;;;;7.00;7.00;;;;;24.36;20.05;99371.13;6186766;28;96740;-62
2023/01/04 12:09:42;;;;;;;;;7.75;7.00;;;;;23.64;20.87;99367.75;6185249;28;96437;-62
2023/01/04 12:12:47;;;;;;;;;6.40;5.60;;;;;23.08;21.86;99364.00;6187612;28;96807;-62
2023/01/04 12:15:59;;;;;;;;;8.00;7.00;;;;;22.76;22.23;99367.34;6184871;28;96895;-63
2023/01/04 12:19:04;;;;;;;;;7.75;7.00;;;;;22.54;22.39;99350.47;6180289;28;96134;-62
2023/01/04 12:22:21;;;;;;;;;7.00;7.00;;;;;22.44;22.37;99349.47;6178365;28;96555;-62
2023/01/04 12:25:32;;;;;;;;;9.00;8.80;;;;;22.22;22.84;99335.38;6188551;28;96370;-63
2023/01/04 12:28:39;;;;;;;;;8.40;7.40;;;;;22.15;22.57;99323.88;6191150;28;96793;-63
2023/01/04 12:31:42;;;;;;;;;6.00;6.00;;;;;22.04;23.24;99314.09;6190386;28;96334;-63
2023/01/04 12:34:47;;;;;;;;;7.00;6.00;;;;;22.04;22.89;99308.59;6191174;28;97582;-62
2023/01/04 12:37:51;;;;;;;;;5.00;5.00;;;;;22.15;22.46;99307.41;6269195;27;98398;-62
2023/01/04 12:40:55;;;;;;;;;6.00;6.00;;;;;22.02;22.87;99297.09;6190957;28;96199;-62
2023/01/04 12:44:00;;;;;;;;;5.00;4.00;;;;;22.08;22.46;99290.47;6190448;28;96808;-62
2023/01/04 12:50:28;;;;;;;;;4.00;4.00;;;;;22.03;22.16;99254.81;6192539;28;96288;-61
2023/01/04 12:53:54;;;;;;;;;2.40;2.40;;;;;22.15;22.62;99276.38;6192674;28;98390;-64
2023/01/04 12:57:24;;;;;;;;;2.60;2.60;;;;;21.70;22.69;99283.03;6187255;28;96787;-62
2023/01/04 13:01:04;;;;;;;;;3.00;3.00;;;;;21.06;23.27;99257.28;6188585;28;97641;-62
2023/01/04 13:04:37;;;;;;;;;3.00;2.00;;;;;20.47;23.82;99251.75;6177723;27;96221;-62
2023/01/04 13:07:43;;;;;;;;;3.00;2.40;;;;;19.64;24.85;99212.91;6171951;28;96488;-62
2023/01/04 13:10:50;;;;;;;;;3.00;2.60;;;;;19.40;25.50;99236.38;6188490;28;96121;-62
2023/01/04 13:14:00;;;;;;;;;4.00;4.00;;;;;18.61;25.90;99231.16;6186235;28;96816;-62
2023/01/04 13:17:15;;;;;;;;;3.00;3.00;;;;;17.98;26.30;99234.81;6186690;28;97059;-63
2023/01/04 13:20:22;;;;;;;;;3.00;3.00;;;;;17.55;26.88;99214.78;6174955;28;96282;-62
2023/01/04 13:23:27;;;;;;;;;3.00;3.00;;;;;17.03;27.51;99230.88;6161975;28;97529;-61
2023/01/04 13:26:37;;;;;;;;;4.50;4.50;;;;;16.66;28.02;99228.00;6161946;28;96613;-62
2023/01/04 13:29:41;;;;;;;;;3.00;3.00;;;;;16.13;29.02;99214.13;6164969;28;96360;-61
2023/01/04 13:32:47;;;;;;;;;5.00;5.00;;;;;15.70;29.70;99198.53;6166100;28;97491;-63
2023/01/04 13:36:12;;;;;;;;;3.25;3.25;;;;;15.52;30.20;99208.56;6168710;28;96815;-62
2023/01/04 13:39:15;;;;;;;;;4.00;3.00;;;;;15.23;30.94;99177.06;6165459;27;96876;-63
2023/01/04 13:42:26;;;;;;;;;4.20;4.00;;;;;15.07;31.07;99178.66;6162039;28;97741;-63
2023/01/04 13:45:49;;;;;;;;;4.00;3.00;;;;;14.77;31.40;99158.25;6167315;28;96684;-62
2023/01/04 13:48:58;;;;;;;;;5.00;4.00;;;;;14.88;31.27;99173.69;6167692;27;96657;-61
2023/01/04 13:52:20;;;;;;;;;4.40;4.00;;;;;14.74;31.39;99171.25;6170347;28;96407;-63
2023/01/04 13:55:44;;;;;;;;;6.00;6.00;;;;;14.63;31.74;99166.69;6163806;28;96733;-63
2023/01/04 13:58:47;;;;;;;;;3.60;3.00;;;;;14.55;32.29;99161.66;6169369;28;97396;-62
2023/01/04 14:01:51;;;;;;;;;4.00;4.00;;;;;14.59;32.19;99153.84;6166982;28;97357;-62
2023/01/04 14:04:55;;;;;;;;;4.60;4.00;;;;;14.53;31.83;99171.09;6170856;28;96909;-62
2023/01/04 14:08:00;;;;;;;;;4.00;3.60;;;;;14.51;32.36;99146.94;6167902;28;97132;-62
2023/01/04 14:11:14;;;;;;;;;4.00;3.00;;;;;14.55;32.33;99144.53;6170101;28;96436;-62
2023/01/04 14:14:28;;;;;;;;;3.60;3.00;;;;;14.51;32.35;99137.97;6168330;28;96660;-61
2023/01/04 14:17:35;;;;;;;;;6.00;6.00;;;;;14.71;31.77;99124.75;6183210;28;97088;-62
2023/01/04 14:20:38;;;;;;;;;5.00;5.00;;;;;14.73;31.91;99126.19;6185474;28;96845;-60
2023/01/04 14:23:43;;;;;;;;;7.00;6.00;;;;;14.72;31.92;99131.84;6186475;28;97521;-62
2023/01/04 14:26:47;;;;;;;;;5.00;5.00;;;;;14.59;32.32;99116.69;6184259;28;96752;-61
2023/01/04 14:29:50;;;;;;;;;6.60;6.00;;;;;14.32;32.60;99110.94;6167838;28;96743;-61
2023/01/04 14:32:56;;;;;;;;;5.00;5.00;;;;;14.20;32.90;99106.63;6162690;28;96681;-61
2023/01/04 14:36:10;;;;;;;;;4.00;4.00;;;;;14.01;33.38;99092.41;6171173;28;96357;-61
2023/01/04 14:39:36;;;;;;;;;6.00;5.00;;;;;13.91;33.55;99085.94;6178011;28;96847;-61
2023/01/04 14:42:39;;;;;;;;;4.60;4.60;;;;;13.79;34.00;99073.22;6170099;28;96492;-61
2023/01/04 14:45:43;;;;;;;;;4.00;3.00;;;;;13.83;33.77;99068.97;6168956;28;96323;-61
2023/01/04 14:48:46;;;;;;;;;4.00;4.00;;;;;13.62;34.41;99077.75;6174757;28;96218;-62
2023/01/04 14:51:52;;;;;;;;;3.40;3.00;;;;;13.51;34.93;99075.03;6183596;28;96262;-62
2023/01/04 14:54:58;;;;;;;;;5.60;5.00;;;;;13.44;35.45;99085.97;6184342;27;96671;-61
2023/01/04 14:58:02;;;;;;;;;5.50;4.50;;;;;13.29;36.05;99061.28;6183445;28;96367;-62
2023/01/04 15:01:05;;;;;;;;;5.00;5.00;;;;;13.11;36.70;99078.41;6182937;28;96708;-61
2023/01/04 15:04:08;;;;;;;;;4.00;4.00;;;;;13.09;36.61;99067.00;6159237;28;97040;-61
2023/01/04 15:07:32;;;;;;;;;5.00;5.00;;;;;13.10;36.61;99048.84;6161366;28;96855;-62
2023/01/04 15:10:37;;;;;;;;;5.00;5.00;;;;;12.90;37.47;99063.50;6198987;28;96603;-61
2023/01/04 15:13:41;;;;;;;;;7.00;7.00;;;;;13.00;37.37;99052.94;6186121;27;96813;-62
2023/01/04 15:16:44;;;;;;;;;3.00;3.00;;;;;12.94;38.06;99045.78;6186291;28;96350;-61
2023/01/04 15:19:48;;;;;;;;;4.00;4.00;;;;;12.98;37.60;99036.13;6177133;27;96365;-62
2023/01/04 15:22:51;;;;;;;;;4.00;3.20;;;;;12.97;37.85;99010.13;6160661;28;96349;-62
2023/01/04 15:25:56;;;;;;;;;3.00;3.00;;;;;12.92;38.21;99023.53;6161907;28;96269;-61